Prairie View, Illinois
Current Conditions -  °F | °C
As of 10:16 PM on Saturday 22 Nov 2014 (Local Time) from KPWK Reporting Station
Overcast Overcast  
Wind Chill: 51°   Ceiling: 2300
Heat Index: 51°   Visibility: 9mi
Dew Point: 46°   Wind: 12mph
Humidity: 83%   Direction: 200°SSW
Pressure: 29.85"   Gusts: NA
Location:  42.1941°N, 87.9317°W
Report Text: KPWK 230416Z AUTO 20010KT 9SM BKN023 OVC049 11/08 A2985 RMK AO2 T01060078
Loading
Personal Weather Stations






























Interactive Weather Map New forecast layout! Learn more

10-Day Weather Forecast

Advertisements
Track Severe Weather on mobile